createdAt,value
2018-10-12T00:00:16.576Z,13.40
2018-10-12T00:02:45.399Z,13.30
2018-10-12T00:05:14.291Z,13.30
2018-10-12T00:07:43.136Z,13.30
2018-10-12T00:10:12.091Z,13.20
2018-10-12T00:12:41.172Z,13.10
2018-10-12T00:15:10.406Z,13.20
2018-10-12T00:17:39.211Z,13.20
2018-10-12T00:20:08.649Z,13.20
2018-10-12T00:22:37.864Z,13.00
2018-10-12T00:25:07.277Z,13.00
2018-10-12T00:27:36.057Z,13.00
2018-10-12T00:30:04.990Z,12.90
2018-10-12T00:32:33.931Z,13.00
2018-10-12T00:35:02.931Z,12.90
2018-10-12T00:37:31.755Z,12.90
2018-10-12T00:40:00.567Z,12.80
2018-10-12T00:42:29.490Z,12.80
2018-10-12T00:44:58.283Z,12.80
2018-10-12T00:47:27.127Z,12.80
2018-10-12T00:49:55.971Z,12.80
2018-10-12T00:52:24.958Z,12.70
2018-10-12T00:54:53.754Z,12.70
2018-10-12T00:57:22.614Z,12.70
2018-10-12T00:59:51.438Z,12.70
2018-10-12T01:02:20.279Z,12.70
2018-10-12T01:04:49.079Z,12.80
2018-10-12T01:07:17.859Z,12.80
2018-10-12T01:09:46.807Z,12.70
2018-10-12T01:12:37.287Z,12.70
2018-10-12T01:15:06.922Z,12.50
2018-10-12T01:17:36.511Z,12.50
2018-10-12T01:20:06.512Z,12.50
2018-10-12T01:22:35.812Z,12.60
2018-10-12T01:25:05.837Z,12.60
2018-10-12T01:27:34.727Z,12.60
2018-10-12T01:30:04.743Z,12.60
2018-10-12T01:32:39.306Z,12.50
2018-10-12T01:35:08.130Z,12.50
2018-10-12T01:37:36.962Z,12.60
2018-10-12T01:40:05.871Z,12.50
2018-10-12T01:42:34.726Z,12.60
2018-10-12T01:45:03.663Z,12.50
2018-10-12T01:47:32.503Z,12.50
2018-10-12T01:50:01.338Z,12.50
2018-10-12T01:52:30.258Z,12.60
2018-10-12T01:54:59.170Z,12.60
2018-10-12T01:57:27.968Z,12.60
2018-10-12T01:59:56.784Z,12.60
2018-10-12T02:02:25.619Z,12.40
2018-10-12T02:04:54.522Z,12.40
2018-10-12T02:07:23.420Z,12.40
2018-10-12T02:09:52.242Z,12.30
2018-10-12T02:12:21.072Z,12.30
2018-10-12T02:14:50.023Z,12.30
2018-10-12T02:17:18.844Z,12.30
2018-10-12T02:19:47.671Z,12.30
2018-10-12T02:22:17.539Z,12.30
2018-10-12T02:24:46.427Z,12.30
2018-10-12T02:27:15.263Z,12.30
2018-10-12T02:29:44.362Z,12.20
2018-10-12T02:32:13.228Z,12.10
2018-10-12T02:34:42.023Z,12.00
2018-10-12T02:37:10.842Z,12.10
2018-10-12T02:39:39.639Z,12.20
2018-10-12T02:42:08.499Z,12.20
2018-10-12T02:44:37.365Z,12.30
2018-10-12T02:47:06.333Z,12.30
2018-10-12T02:49:35.138Z,12.20
2018-10-12T02:52:04.074Z,12.30
2018-10-12T02:54:32.895Z,12.30
2018-10-12T02:57:01.774Z,12.30
2018-10-12T02:59:30.558Z,12.30
2018-10-12T03:01:59.395Z,12.20
2018-10-12T03:04:28.215Z,12.30
2018-10-12T03:06:57.035Z,12.20
2018-10-12T03:09:25.829Z,12.00
2018-10-12T03:11:54.649Z,12.10
2018-10-12T03:14:23.490Z,11.90
2018-10-12T03:16:52.298Z,11.90
2018-10-12T03:19:21.156Z,12.00
2018-10-12T03:21:49.995Z,12.10
2018-10-12T03:24:18.795Z,11.90
2018-10-12T03:26:47.603Z,12.00
2018-10-12T03:29:16.522Z,11.90
2018-10-12T03:31:45.592Z,11.80
2018-10-12T03:34:14.616Z,11.90
2018-10-12T03:36:43.488Z,11.90
2018-10-12T03:39:12.379Z,11.90
2018-10-12T03:41:42.602Z,11.90
2018-10-12T03:44:11.456Z,11.90
2018-10-12T03:46:40.399Z,11.90
2018-10-12T03:49:09.233Z,11.80
2018-10-12T03:51:38.210Z,11.80
2018-10-12T03:54:07.120Z,11.70
2018-10-12T03:56:35.954Z,11.60
2018-10-12T03:59:06.037Z,11.70
2018-10-12T04:01:35.246Z,11.70
2018-10-12T04:04:04.087Z,11.70
2018-10-12T04:06:32.935Z,11.70
2018-10-12T04:09:01.851Z,11.80
2018-10-12T04:11:30.690Z,11.70
2018-10-12T04:13:59.483Z,11.70
2018-10-12T04:16:28.322Z,11.70
2018-10-12T04:18:57.135Z,11.80
2018-10-12T04:21:26.083Z,11.80
2018-10-12T04:23:54.910Z,11.70
2018-10-12T04:26:23.732Z,11.70
2018-10-12T04:28:52.538Z,11.70
2018-10-12T04:31:21.406Z,11.70
2018-10-12T04:33:50.239Z,11.70
2018-10-12T04:36:19.043Z,11.70
2018-10-12T04:39:05.343Z,11.80
2018-10-12T04:41:34.282Z,11.70
2018-10-12T04:44:03.419Z,11.70
2018-10-12T04:46:41.315Z,11.60
2018-10-12T04:49:12.212Z,11.60
2018-10-12T04:51:51.623Z,11.70
2018-10-12T04:54:21.001Z,11.60
2018-10-12T04:56:50.407Z,11.60
2018-10-12T04:59:27.511Z,11.60
2018-10-12T05:01:56.530Z,11.60
2018-10-12T05:04:25.355Z,11.70
2018-10-12T05:06:54.199Z,11.70
2018-10-12T05:09:23.067Z,11.80
2018-10-12T05:11:52.037Z,11.80
2018-10-12T05:14:20.924Z,11.80
2018-10-12T05:16:49.916Z,11.80
2018-10-12T05:19:18.735Z,11.80
2018-10-12T05:21:47.695Z,11.70
2018-10-12T05:24:16.532Z,11.70
2018-10-12T05:26:45.390Z,11.70
2018-10-12T05:29:14.696Z,11.80
2018-10-12T05:31:44.189Z,11.80
2018-10-12T05:34:13.319Z,11.80
2018-10-12T05:36:42.596Z,11.80
2018-10-12T05:39:12.795Z,11.80
2018-10-12T05:41:42.360Z,11.80
2018-10-12T05:44:11.277Z,11.80
2018-10-12T05:46:40.775Z,11.90
2018-10-12T05:49:26.911Z,12.00
2018-10-12T05:51:56.110Z,11.90
2018-10-12T05:54:25.056Z,11.80
2018-10-12T05:56:54.322Z,11.80
2018-10-12T05:59:27.735Z,11.90
2018-10-12T06:01:57.158Z,11.90
2018-10-12T06:04:26.667Z,12.10
2018-10-12T06:06:55.575Z,12.20
2018-10-12T06:09:24.509Z,12.10
2018-10-12T06:11:53.459Z,12.10
2018-10-12T06:14:22.279Z,12.20
2018-10-12T06:16:51.124Z,12.20
2018-10-12T06:19:19.934Z,12.30
2018-10-12T06:21:48.827Z,12.30
2018-10-12T06:24:17.638Z,12.30
2018-10-12T06:26:47.057Z,12.20
2018-10-12T06:29:15.986Z,12.30
2018-10-12T06:31:44.905Z,12.40
2018-10-12T06:34:13.699Z,12.40
2018-10-12T06:36:42.502Z,12.50
2018-10-12T06:39:11.330Z,12.60
2018-10-12T06:41:40.378Z,12.70
2018-10-12T06:44:09.075Z,12.70
2018-10-12T06:46:38.017Z,12.80
2018-10-12T06:49:06.834Z,12.90
2018-10-12T06:51:35.687Z,12.90
2018-10-12T06:54:04.604Z,12.90
2018-10-12T07:03:08.859Z,13.10
2018-10-12T07:05:37.740Z,13.10
2018-10-12T07:08:06.552Z,13.20
2018-10-12T07:10:35.451Z,13.30
2018-10-12T07:13:04.302Z,13.30
2018-10-12T07:15:33.112Z,13.40
2018-10-12T07:18:01.934Z,13.30
2018-10-12T07:20:30.807Z,13.30
2018-10-12T07:23:00.109Z,13.30
2018-10-12T07:25:28.994Z,13.30
2018-10-12T07:27:57.806Z,13.40
2018-10-12T07:30:26.626Z,13.50
2018-10-12T07:32:55.469Z,13.60
2018-10-12T07:35:24.284Z,13.70
2018-10-12T07:37:53.219Z,13.80
2018-10-12T07:40:22.024Z,13.80
2018-10-12T07:42:50.843Z,13.90
2018-10-12T07:45:19.671Z,13.90
2018-10-12T07:47:48.551Z,13.90
2018-10-12T07:50:17.439Z,14.00
2018-10-12T07:52:46.596Z,14.20
2018-10-12T07:55:15.430Z,14.30
2018-10-12T07:57:44.323Z,14.40
2018-10-12T08:00:15.398Z,14.50
2018-10-12T08:02:46.248Z,14.60
2018-10-12T08:05:15.116Z,14.50
2018-10-12T08:07:44.014Z,14.50
2018-10-12T08:10:12.843Z,14.50
2018-10-12T08:12:41.816Z,14.50
2018-10-12T08:15:10.676Z,14.60
2018-10-12T08:17:39.599Z,14.60
2018-10-12T08:20:09.184Z,14.60
2018-10-12T08:22:38.062Z,14.60
2018-10-12T08:25:06.967Z,14.70
2018-10-12T08:27:35.833Z,14.70
2018-10-12T08:30:04.816Z,14.80
2018-10-12T08:32:33.810Z,14.80
2018-10-12T08:35:02.772Z,14.90
2018-10-12T08:37:31.587Z,14.90
2018-10-12T08:40:00.383Z,14.90
2018-10-12T08:42:29.322Z,14.90
2018-10-12T08:44:58.135Z,14.90
2018-10-12T08:47:27.568Z,15.00
2018-10-12T08:49:56.367Z,15.10
2018-10-12T08:52:25.303Z,15.10
2018-10-12T08:54:54.157Z,15.20
2018-10-12T08:57:23.006Z,15.20
2018-10-12T08:59:51.876Z,15.30
2018-10-12T09:02:20.730Z,15.40
2018-10-12T09:04:50.531Z,15.50
2018-10-12T09:07:19.435Z,15.60
2018-10-12T09:09:48.303Z,15.70
2018-10-12T09:12:17.182Z,15.70
2018-10-12T09:14:46.014Z,15.80
2018-10-12T09:17:15.188Z,15.90
2018-10-12T09:19:44.179Z,16.00
2018-10-12T09:22:13.466Z,16.10
2018-10-12T09:24:42.836Z,16.20
2018-10-12T09:27:11.749Z,16.30
2018-10-12T09:29:41.151Z,16.40
2018-10-12T09:32:10.116Z,16.40
2018-10-12T09:34:38.927Z,16.50
2018-10-12T09:37:07.889Z,16.60
2018-10-12T09:39:36.722Z,16.70
2018-10-12T09:42:05.743Z,16.90
2018-10-12T09:44:34.542Z,16.90
2018-10-12T09:47:03.380Z,17.00
2018-10-12T09:49:32.187Z,17.30
2018-10-12T09:52:01.095Z,17.70
2018-10-12T09:54:29.936Z,18.00
2018-10-12T09:57:04.462Z,18.20
2018-10-12T09:59:33.280Z,18.40
2018-10-12T10:02:07.868Z,18.50
2018-10-12T10:04:36.704Z,18.50
2018-10-12T10:07:05.554Z,18.60
2018-10-12T10:09:34.550Z,18.70
2018-10-12T10:13:27.851Z,19.00
2018-10-12T10:15:56.691Z,19.20
2018-10-12T10:18:25.571Z,19.40
2018-10-12T10:20:54.411Z,19.40
2018-10-12T10:23:23.259Z,19.40
2018-10-12T10:25:52.378Z,19.60
2018-10-12T10:28:21.257Z,19.70
2018-10-12T10:30:50.208Z,19.80
2018-10-12T10:33:19.178Z,19.90
2018-10-12T10:35:48.880Z,20.00
2018-10-12T10:38:18.046Z,20.20
2018-10-12T10:40:46.858Z,20.40
2018-10-12T10:43:15.714Z,20.60
2018-10-12T10:45:44.603Z,20.80
2018-10-12T10:48:13.469Z,20.90
2018-10-12T10:50:42.375Z,21.10
2018-10-12T10:53:11.303Z,21.30
2018-10-12T10:55:40.142Z,21.40
2018-10-12T10:58:08.961Z,21.70
2018-10-12T11:00:37.819Z,21.90
2018-10-12T11:03:06.763Z,22.30
2018-10-12T11:05:35.680Z,22.50
2018-10-12T11:08:04.548Z,22.60
2018-10-12T11:10:33.415Z,22.90
2018-10-12T11:13:02.291Z,23.00
2018-10-12T11:15:31.071Z,23.10
2018-10-12T11:17:59.906Z,23.30
2018-10-12T11:20:28.723Z,23.40
2018-10-12T11:22:57.579Z,23.40
2018-10-12T11:25:27.230Z,23.50
2018-10-12T11:27:56.153Z,23.70
2018-10-12T11:30:25.060Z,24.00
2018-10-12T11:32:54.479Z,24.10
2018-10-12T11:35:23.313Z,24.20
2018-10-12T11:37:52.151Z,24.40
2018-10-12T11:40:21.074Z,24.60
2018-10-12T11:43:06.980Z,24.60
2018-10-12T11:45:35.830Z,24.60
2018-10-12T11:48:04.670Z,24.60
2018-10-12T11:50:33.718Z,24.70
2018-10-12T11:53:02.583Z,25.00
2018-10-12T11:55:31.437Z,25.00
2018-10-12T11:58:00.295Z,24.90
2018-10-12T12:00:31.867Z,25.00
2018-10-12T12:03:00.746Z,25.00
2018-10-12T12:05:29.560Z,25.20
2018-10-12T12:07:58.391Z,25.10
2018-10-12T12:10:27.371Z,25.30
2018-10-12T12:12:56.159Z,25.40
2018-10-12T12:15:24.970Z,25.60
2018-10-12T12:17:53.795Z,25.60
2018-10-12T12:20:22.608Z,25.80
2018-10-12T12:22:51.639Z,25.90
2018-10-12T12:25:20.466Z,25.80
2018-10-12T12:27:49.504Z,25.90
2018-10-12T12:30:18.395Z,25.80
2018-10-12T12:32:47.206Z,25.80
2018-10-12T12:35:16.328Z,25.70
2018-10-12T12:37:44.855Z,25.90
2018-10-12T12:40:13.704Z,25.90
2018-10-12T12:42:42.620Z,26.10
2018-10-12T12:45:11.436Z,26.10
2018-10-12T12:47:40.430Z,26.10
2018-10-12T12:50:09.239Z,26.10
2018-10-12T12:52:38.156Z,26.20
2018-10-12T12:55:06.963Z,26.30
2018-10-12T12:57:35.795Z,26.30
2018-10-12T13:00:05.185Z,26.20
2018-10-12T13:02:35.889Z,26.10
2018-10-12T13:05:04.762Z,26.00
2018-10-12T13:07:33.619Z,26.10
2018-10-12T13:10:02.484Z,26.10
2018-10-12T13:12:31.303Z,26.20
2018-10-12T13:15:00.084Z,26.10
2018-10-12T13:17:28.927Z,26.10
2018-10-12T13:19:57.732Z,26.10
2018-10-12T13:22:26.579Z,26.20
2018-10-12T13:24:55.415Z,26.30
2018-10-12T13:27:24.242Z,26.30
2018-10-12T13:29:53.079Z,26.30
2018-10-12T13:32:22.015Z,26.20
2018-10-12T13:34:50.836Z,26.20
2018-10-12T13:37:19.647Z,26.10
2018-10-12T13:39:48.491Z,26.00
2018-10-12T13:42:17.407Z,26.30
2018-10-12T13:44:46.203Z,26.30
2018-10-12T13:47:15.039Z,26.30
2018-10-12T13:49:43.851Z,26.30
2018-10-12T13:52:13.515Z,25.90
2018-10-12T13:54:42.528Z,25.60
2018-10-12T13:57:11.970Z,25.10
2018-10-12T13:59:41.204Z,25.10
2018-10-12T14:02:10.328Z,24.90
2018-10-12T14:04:39.150Z,24.70
2018-10-12T14:07:08.865Z,24.30
2018-10-12T14:09:38.140Z,24.10
2018-10-12T14:12:07.470Z,24.00
2018-10-12T14:14:36.275Z,23.90
2018-10-12T14:17:05.155Z,23.80
2018-10-12T14:19:34.007Z,23.70
2018-10-12T14:22:02.962Z,23.50
2018-10-12T14:24:31.772Z,23.30
2018-10-12T14:27:00.659Z,23.30
2018-10-12T14:29:29.474Z,23.30
2018-10-12T14:31:58.402Z,23.40
2018-10-12T14:34:27.202Z,23.30
2018-10-12T14:36:56.093Z,23.20
2018-10-12T14:39:24.886Z,23.10
2018-10-12T14:41:53.780Z,22.90
2018-10-12T14:44:22.760Z,22.90
2018-10-12T14:46:51.464Z,22.80
2018-10-12T14:49:20.272Z,22.60
2018-10-12T14:51:49.108Z,22.50
2018-10-12T14:54:17.930Z,22.50
2018-10-12T14:56:46.758Z,22.50
2018-10-12T14:59:16.055Z,22.30
2018-10-12T15:01:46.426Z,22.30
2018-10-12T15:04:15.211Z,22.30
2018-10-12T15:06:44.015Z,22.40
2018-10-12T15:09:13.615Z,22.10
2018-10-12T15:11:42.587Z,21.90
2018-10-12T15:14:11.407Z,21.80
2018-10-12T15:16:40.219Z,21.90
2018-10-12T15:19:09.035Z,22.00
2018-10-12T15:21:37.923Z,22.00
2018-10-12T15:24:06.949Z,22.00
2018-10-12T15:26:36.519Z,21.80
2018-10-12T15:29:05.438Z,21.70
2018-10-12T15:31:35.313Z,21.70
2018-10-12T15:34:04.191Z,21.70
2018-10-12T15:36:33.026Z,21.50
2018-10-12T15:39:01.903Z,21.40
2018-10-12T15:41:30.879Z,21.40
2018-10-12T15:43:59.680Z,21.40
2018-10-12T15:46:28.516Z,21.30
2018-10-12T15:48:57.472Z,21.20
2018-10-12T15:51:26.424Z,21.10
2018-10-12T15:53:55.263Z,21.10
2018-10-12T15:56:24.172Z,21.00
2018-10-12T15:58:53.007Z,20.80
2018-10-12T16:01:21.951Z,20.70
2018-10-12T16:03:50.771Z,20.60
2018-10-12T16:06:19.908Z,20.50
2018-10-12T16:08:48.841Z,20.40
2018-10-12T16:11:18.292Z,20.30
2018-10-12T16:13:47.695Z,20.10
2018-10-12T16:16:17.156Z,20.00
2018-10-12T16:18:46.076Z,19.90
2018-10-12T16:21:15.018Z,19.70
2018-10-12T16:23:47.446Z,19.70
2018-10-12T16:26:19.939Z,19.50
2018-10-12T16:28:49.058Z,19.40
2018-10-12T16:31:18.323Z,19.30
2018-10-12T16:33:47.195Z,19.20
2018-10-12T16:36:16.098Z,19.10
2018-10-12T16:38:45.192Z,19.00
2018-10-12T16:41:14.306Z,18.90
2018-10-12T16:43:43.551Z,18.80
2018-10-12T16:46:12.484Z,18.70
2018-10-12T16:48:41.713Z,18.60
2018-10-12T16:51:11.195Z,18.50
2018-10-12T16:53:40.576Z,18.40
2018-10-12T16:56:09.820Z,18.30
2018-10-12T16:58:40.330Z,18.30
2018-10-12T17:01:09.639Z,18.20
2018-10-12T17:03:39.208Z,18.10
2018-10-12T17:06:08.055Z,18.10
2018-10-12T17:08:36.905Z,18.00
2018-10-12T17:11:06.127Z,17.90
2018-10-12T17:13:34.991Z,17.90
2018-10-12T17:16:03.822Z,17.80
2018-10-12T17:18:32.671Z,17.80
2018-10-12T17:21:01.615Z,17.70
2018-10-12T17:23:30.511Z,17.60
2018-10-12T17:26:00.379Z,17.60
2018-10-12T17:28:29.217Z,17.60
2018-10-12T17:30:58.098Z,17.50
2018-10-12T17:33:26.940Z,17.50
2018-10-12T17:35:55.758Z,17.40
2018-10-12T17:38:24.839Z,17.40
2018-10-12T17:40:53.757Z,17.30
2018-10-12T17:43:22.532Z,17.30
2018-10-12T17:45:51.407Z,17.20
2018-10-12T17:48:20.238Z,17.10
2018-10-12T17:50:49.139Z,17.10
2018-10-12T17:53:17.979Z,17.10
2018-10-12T17:55:46.779Z,17.00
2018-10-12T17:58:15.647Z,17.00
2018-10-12T18:00:44.591Z,16.90
2018-10-12T18:03:13.408Z,16.90
2018-10-12T18:05:42.240Z,16.80
2018-10-12T18:08:11.602Z,16.70
2018-10-12T18:10:41.334Z,16.70
2018-10-12T18:13:10.167Z,16.70
2018-10-12T18:15:39.396Z,16.60
2018-10-12T18:18:08.315Z,16.60
2018-10-12T18:20:37.771Z,16.60
2018-10-12T18:23:06.863Z,16.50
2018-10-12T18:25:35.724Z,16.60
2018-10-12T18:28:04.706Z,16.50
2018-10-12T18:30:33.886Z,16.50
2018-10-12T18:33:03.133Z,16.30
2018-10-12T18:35:32.051Z,16.30
2018-10-12T18:38:00.873Z,16.20
2018-10-12T18:40:29.822Z,16.20
2018-10-12T18:42:59.661Z,16.10
2018-10-12T18:45:28.605Z,16.10
2018-10-12T18:47:57.509Z,16.10
2018-10-12T18:50:26.359Z,16.00
2018-10-12T18:52:55.233Z,16.00
2018-10-12T18:55:24.106Z,16.00
2018-10-12T18:57:52.999Z,16.00
2018-10-12T19:00:30.924Z,16.00
2018-10-12T19:02:59.992Z,15.90
2018-10-12T19:05:28.931Z,15.90
2018-10-12T19:07:57.783Z,15.90
2018-10-12T19:10:26.637Z,15.80
2018-10-12T19:12:56.103Z,15.70
2018-10-12T19:15:24.974Z,15.80
2018-10-12T19:17:53.835Z,15.80
2018-10-12T19:20:22.659Z,15.80
2018-10-12T19:22:51.959Z,15.70
2018-10-12T19:25:20.839Z,15.70
2018-10-12T19:27:49.695Z,15.70
2018-10-12T19:30:18.527Z,15.50
2018-10-12T19:32:47.479Z,15.40
2018-10-12T19:35:16.327Z,15.50
2018-10-12T19:37:45.206Z,15.40
2018-10-12T19:40:14.056Z,15.30
2018-10-12T19:42:43.319Z,15.30
2018-10-12T19:45:12.187Z,15.30
2018-10-12T19:47:41.047Z,15.20
2018-10-12T19:50:10.609Z,15.20
2018-10-12T19:52:39.495Z,15.10
2018-10-12T19:55:08.368Z,15.10
2018-10-12T19:57:37.262Z,15.10
2018-10-12T20:00:07.233Z,15.00
2018-10-12T20:02:37.019Z,15.00
2018-10-12T20:05:06.974Z,15.00
2018-10-12T20:07:35.975Z,14.90
2018-10-12T20:10:05.502Z,14.90
2018-10-12T20:12:34.409Z,14.90
2018-10-12T20:15:04.467Z,15.00
2018-10-12T20:17:33.336Z,15.00
2018-10-12T20:20:02.202Z,15.00
2018-10-12T20:22:31.403Z,15.00
2018-10-12T20:25:00.222Z,14.90
2018-10-12T20:27:29.055Z,14.80
2018-10-12T20:29:58.851Z,14.80
2018-10-12T20:32:27.752Z,14.70
2018-10-12T20:34:56.571Z,14.70
2018-10-12T20:37:25.531Z,14.80
2018-10-12T20:39:54.409Z,14.80
2018-10-12T20:42:23.327Z,14.80
2018-10-12T20:44:52.149Z,14.70
2018-10-12T20:47:21.000Z,14.70
2018-10-12T20:49:50.533Z,14.70
2018-10-12T20:52:20.925Z,14.60
2018-10-12T20:54:50.007Z,14.50
2018-10-12T20:57:18.935Z,14.50
2018-10-12T20:59:47.739Z,14.40
2018-10-12T21:02:17.651Z,14.40
2018-10-12T21:04:46.447Z,14.40
2018-10-12T21:07:15.316Z,14.40
2018-10-12T21:09:44.204Z,14.40
2018-10-12T21:12:13.116Z,14.40
2018-10-12T21:14:41.907Z,14.40
2018-10-12T21:17:10.715Z,14.40
2018-10-12T21:19:39.547Z,14.40
2018-10-12T21:22:08.491Z,14.40
2018-10-12T21:24:37.292Z,14.40
2018-10-12T21:27:06.114Z,14.30
2018-10-12T21:29:34.912Z,14.30
2018-10-12T21:32:03.799Z,14.30
2018-10-12T21:34:32.598Z,14.20
2018-10-12T21:37:01.379Z,14.20
2018-10-12T21:39:30.212Z,14.30
2018-10-12T21:41:59.099Z,14.30
2018-10-12T21:44:27.924Z,14.30
2018-10-12T21:46:56.772Z,14.30
2018-10-12T21:49:25.617Z,14.30
2018-10-12T21:51:54.978Z,14.20
2018-10-12T21:54:23.782Z,14.20
2018-10-12T21:56:52.643Z,14.20
2018-10-12T21:59:27.851Z,14.10
2018-10-12T22:03:00.400Z,14.10
2018-10-12T22:05:29.215Z,14.00
2018-10-12T22:07:58.018Z,13.90
2018-10-12T22:10:26.886Z,13.80
2018-10-12T22:12:55.714Z,13.80
2018-10-12T22:15:24.539Z,13.90
2018-10-12T22:17:53.366Z,13.90
2018-10-12T22:20:22.193Z,13.90
2018-10-12T22:22:51.081Z,13.80
2018-10-12T22:25:19.842Z,13.80
2018-10-12T22:27:48.668Z,13.60
2018-10-12T22:30:17.472Z,13.50
2018-10-12T22:32:46.306Z,13.50
2018-10-12T22:35:15.093Z,13.50
2018-10-12T22:37:43.919Z,13.60
2018-10-12T22:40:12.747Z,13.60
2018-10-12T22:42:41.623Z,13.50
2018-10-12T22:45:10.425Z,13.40
2018-10-12T22:47:39.246Z,13.50
2018-10-12T22:50:08.106Z,13.50
2018-10-12T22:52:36.926Z,13.50
2018-10-12T22:55:05.807Z,13.50
2018-10-12T22:57:34.667Z,13.50
2018-10-12T23:00:03.529Z,13.40
2018-10-12T23:02:32.618Z,13.30
2018-10-12T23:05:01.411Z,13.30
2018-10-12T23:07:30.236Z,13.30
2018-10-12T23:09:59.058Z,13.30
2018-10-12T23:12:27.958Z,13.20
2018-10-12T23:14:56.771Z,13.20
2018-10-12T23:17:25.586Z,13.20
2018-10-12T23:19:54.386Z,13.20
2018-10-12T23:22:23.315Z,13.10
2018-10-12T23:24:52.084Z,13.10
2018-10-12T23:27:20.902Z,13.10
2018-10-12T23:29:49.659Z,13.00
2018-10-12T23:32:18.579Z,13.10
2018-10-12T23:34:47.426Z,13.20
2018-10-12T23:37:16.238Z,13.20
2018-10-12T23:39:45.019Z,13.20
2018-10-12T23:42:13.935Z,13.20
2018-10-12T23:44:42.791Z,13.10
2018-10-12T23:47:11.621Z,13.20
2018-10-12T23:49:40.423Z,13.30
2018-10-12T23:52:09.284Z,13.40
2018-10-12T23:54:38.131Z,13.30
2018-10-12T23:57:07.084Z,13.20
2018-10-12T23:59:35.954Z,13.20
